sensor_id;sensor_type;location;lat;lon;timestamp;P1;durP1;ratioP1;P2;durP2;ratioP2
22646;SDS011;11490;42.726;23.268;2023-04-24T00:01:22;10.70;;;5.55;;
22646;SDS011;11490;42.726;23.268;2023-04-24T00:03:48;5.60;;;4.00;;
22646;SDS011;11490;42.726;23.268;2023-04-24T00:06:14;6.20;;;4.32;;
22646;SDS011;11490;42.726;23.268;2023-04-24T00:08:41;5.85;;;4.25;;
22646;SDS011;11490;42.726;23.268;2023-04-24T00:11:07;4.57;;;3.72;;
22646;SDS011;11490;42.726;23.268;2023-04-24T00:13:34;5.22;;;4.03;;
22646;SDS011;11490;42.726;23.268;2023-04-24T00:15:59;5.70;;;3.60;;
22646;SDS011;11490;42.726;23.268;2023-04-24T00:18:25;6.15;;;5.22;;
22646;SDS011;11490;42.726;23.268;2023-04-24T00:20:50;9.35;;;4.30;;
22646;SDS011;11490;42.726;23.268;2023-04-24T00:23:16;6.03;;;4.28;;
22646;SDS011;11490;42.726;23.268;2023-04-24T00:25:41;5.15;;;4.18;;
22646;SDS011;11490;42.726;23.268;2023-04-24T00:28:06;5.65;;;4.25;;
22646;SDS011;11490;42.726;23.268;2023-04-24T00:30:32;6.18;;;4.63;;
22646;SDS011;11490;42.726;23.268;2023-04-24T00:32:57;6.50;;;4.85;;
22646;SDS011;11490;42.726;23.268;2023-04-24T00:35:23;5.70;;;4.57;;
22646;SDS011;11490;42.726;23.268;2023-04-24T00:37:48;6.38;;;4.82;;
22646;SDS011;11490;42.726;23.268;2023-04-24T00:40:14;6.53;;;4.72;;
22646;SDS011;11490;42.726;23.268;2023-04-24T00:42:40;7.22;;;4.25;;
22646;SDS011;11490;42.726;23.268;2023-04-24T00:45:06;6.70;;;4.82;;
22646;SDS011;11490;42.726;23.268;2023-04-24T00:47:35;5.55;;;4.95;;
22646;SDS011;11490;42.726;23.268;2023-04-24T00:50:02;7.50;;;5.13;;
22646;SDS011;11490;42.726;23.268;2023-04-24T00:52:31;9.32;;;5.88;;
22646;SDS011;11490;42.726;23.268;2023-04-24T00:54:57;9.23;;;6.18;;
22646;SDS011;11490;42.726;23.268;2023-04-24T00:57:23;9.95;;;6.90;;
22646;SDS011;11490;42.726;23.268;2023-04-24T00:59:49;9.07;;;5.57;;
22646;SDS011;11490;42.726;23.268;2023-04-24T01:02:15;12.55;;;7.05;;
22646;SDS011;11490;42.726;23.268;2023-04-24T01:04:40;9.43;;;5.97;;
22646;SDS011;11490;42.726;23.268;2023-04-24T01:07:06;10.65;;;6.75;;
22646;SDS011;11490;42.726;23.268;2023-04-24T01:09:35;10.55;;;6.28;;
22646;SDS011;11490;42.726;23.268;2023-04-24T01:12:03;13.50;;;6.30;;
22646;SDS011;11490;42.726;23.268;2023-04-24T01:14:28;9.02;;;5.50;;
22646;SDS011;11490;42.726;23.268;2023-04-24T01:16:55;7.38;;;5.70;;
22646;SDS011;11490;42.726;23.268;2023-04-24T01:19:22;6.63;;;5.95;;
22646;SDS011;11490;42.726;23.268;2023-04-24T01:21:48;8.88;;;6.68;;
22646;SDS011;11490;42.726;23.268;2023-04-24T01:24:16;9.38;;;5.88;;
22646;SDS011;11490;42.726;23.268;2023-04-24T01:26:43;7.90;;;6.35;;
22646;SDS011;11490;42.726;23.268;2023-04-24T01:29:09;11.27;;;6.00;;
22646;SDS011;11490;42.726;23.268;2023-04-24T01:31:35;11.52;;;7.10;;
22646;SDS011;11490;42.726;23.268;2023-04-24T01:34:01;15.45;;;7.53;;
22646;SDS011;11490;42.726;23.268;2023-04-24T01:36:27;10.13;;;7.30;;
22646;SDS011;11490;42.726;23.268;2023-04-24T01:38:56;19.17;;;7.22;;
22646;SDS011;11490;42.726;23.268;2023-04-24T01:41:21;8.32;;;5.65;;
22646;SDS011;11490;42.726;23.268;2023-04-24T01:43:47;12.55;;;7.60;;
22646;SDS011;11490;42.726;23.268;2023-04-24T01:46:13;8.68;;;6.38;;
22646;SDS011;11490;42.726;23.268;2023-04-24T01:48:39;14.80;;;7.43;;
22646;SDS011;11490;42.726;23.268;2023-04-24T01:51:05;9.35;;;6.20;;
22646;SDS011;11490;42.726;23.268;2023-04-24T01:53:30;11.50;;;7.60;;
22646;SDS011;11490;42.726;23.268;2023-04-24T01:55:55;9.48;;;6.35;;
22646;SDS011;11490;42.726;23.268;2023-04-24T01:58:22;7.53;;;5.45;;
22646;SDS011;11490;42.726;23.268;2023-04-24T02:00:47;9.75;;;6.50;;
22646;SDS011;11490;42.726;23.268;2023-04-24T02:03:13;10.02;;;6.32;;
22646;SDS011;11490;42.726;23.268;2023-04-24T02:05:38;8.10;;;5.95;;
22646;SDS011;11490;42.726;23.268;2023-04-24T02:08:03;9.80;;;6.72;;
22646;SDS011;11490;42.726;23.268;2023-04-24T02:10:29;10.40;;;6.60;;
22646;SDS011;11490;42.726;23.268;2023-04-24T02:12:54;7.90;;;6.45;;
22646;SDS011;11490;42.726;23.268;2023-04-24T02:15:20;9.90;;;6.28;;
22646;SDS011;11490;42.726;23.268;2023-04-24T02:17:45;10.98;;;6.55;;
22646;SDS011;11490;42.726;23.268;2023-04-24T02:20:11;8.52;;;5.85;;
22646;SDS011;11490;42.726;23.268;2023-04-24T02:22:36;8.07;;;6.30;;
22646;SDS011;11490;42.726;23.268;2023-04-24T02:25:02;10.93;;;6.13;;
22646;SDS011;11490;42.726;23.268;2023-04-24T02:27:27;9.60;;;6.30;;
22646;SDS011;11490;42.726;23.268;2023-04-24T02:29:53;8.77;;;6.38;;
22646;SDS011;11490;42.726;23.268;2023-04-24T02:32:18;8.68;;;6.20;;
22646;SDS011;11490;42.726;23.268;2023-04-24T02:34:43;8.73;;;6.25;;
22646;SDS011;11490;42.726;23.268;2023-04-24T02:37:09;8.90;;;5.97;;
22646;SDS011;11490;42.726;23.268;2023-04-24T02:39:34;9.10;;;5.85;;
22646;SDS011;11490;42.726;23.268;2023-04-24T02:42:00;9.23;;;5.93;;
22646;SDS011;11490;42.726;23.268;2023-04-24T02:44:26;7.80;;;6.03;;
22646;SDS011;11490;42.726;23.268;2023-04-24T02:46:52;7.60;;;5.97;;
22646;SDS011;11490;42.726;23.268;2023-04-24T02:49:17;7.53;;;5.63;;
22646;SDS011;11490;42.726;23.268;2023-04-24T02:51:42;11.32;;;6.38;;
22646;SDS011;11490;42.726;23.268;2023-04-24T02:54:08;8.00;;;5.93;;
22646;SDS011;11490;42.726;23.268;2023-04-24T02:56:35;8.75;;;6.22;;
22646;SDS011;11490;42.726;23.268;2023-04-24T02:59:00;6.80;;;5.20;;
22646;SDS011;11490;42.726;23.268;2023-04-24T03:01:25;9.23;;;6.47;;
22646;SDS011;11490;42.726;23.268;2023-04-24T03:03:51;7.50;;;5.32;;
22646;SDS011;11490;42.726;23.268;2023-04-24T03:06:16;8.35;;;6.35;;
22646;SDS011;11490;42.726;23.268;2023-04-24T03:08:41;9.48;;;6.55;;
22646;SDS011;11490;42.726;23.268;2023-04-24T03:11:07;10.10;;;5.82;;
22646;SDS011;11490;42.726;23.268;2023-04-24T03:13:32;9.50;;;5.45;;
22646;SDS011;11490;42.726;23.268;2023-04-24T03:15:58;8.15;;;5.57;;
22646;SDS011;11490;42.726;23.268;2023-04-24T03:18:23;7.38;;;5.75;;
22646;SDS011;11490;42.726;23.268;2023-04-24T03:20:49;9.38;;;6.20;;
22646;SDS011;11490;42.726;23.268;2023-04-24T03:23:15;9.52;;;6.10;;
22646;SDS011;11490;42.726;23.268;2023-04-24T03:25:40;9.45;;;6.22;;
22646;SDS011;11490;42.726;23.268;2023-04-24T03:28:07;12.35;;;8.45;;
22646;SDS011;11490;42.726;23.268;2023-04-24T03:30:33;14.40;;;9.00;;
22646;SDS011;11490;42.726;23.268;2023-04-24T03:32:58;14.77;;;7.57;;
22646;SDS011;11490;42.726;23.268;2023-04-24T03:35:24;14.65;;;9.07;;
22646;SDS011;11490;42.726;23.268;2023-04-24T03:37:49;9.55;;;6.18;;
22646;SDS011;11490;42.726;23.268;2023-04-24T03:40:15;10.43;;;6.32;;
22646;SDS011;11490;42.726;23.268;2023-04-24T03:42:40;9.25;;;6.82;;
22646;SDS011;11490;42.726;23.268;2023-04-24T03:45:06;9.52;;;5.93;;
22646;SDS011;11490;42.726;23.268;2023-04-24T03:47:32;6.47;;;5.50;;
22646;SDS011;11490;42.726;23.268;2023-04-24T03:49:57;9.75;;;6.28;;
22646;SDS011;11490;42.726;23.268;2023-04-24T03:52:23;13.68;;;6.80;;
22646;SDS011;11490;42.726;23.268;2023-04-24T03:54:48;10.35;;;6.72;;
22646;SDS011;11490;42.726;23.268;2023-04-24T03:57:13;7.40;;;5.60;;
22646;SDS011;11490;42.726;23.268;2023-04-24T03:59:39;8.00;;;6.03;;
22646;SDS011;11490;42.726;23.268;2023-04-24T04:02:04;8.75;;;5.50;;
22646;SDS011;11490;42.726;23.268;2023-04-24T04:04:30;10.43;;;6.10;;
22646;SDS011;11490;42.726;23.268;2023-04-24T04:06:55;13.15;;;8.80;;
22646;SDS011;11490;42.726;23.268;2023-04-24T04:09:20;16.38;;;8.18;;
22646;SDS011;11490;42.726;23.268;2023-04-24T04:11:46;11.00;;;7.60;;
22646;SDS011;11490;42.726;23.268;2023-04-24T04:14:11;10.23;;;6.97;;
22646;SDS011;11490;42.726;23.268;2023-04-24T04:16:37;10.95;;;8.07;;
22646;SDS011;11490;42.726;23.268;2023-04-24T04:19:03;13.18;;;8.20;;
22646;SDS011;11490;42.726;23.268;2023-04-24T04:21:28;13.02;;;7.80;;
22646;SDS011;11490;42.726;23.268;2023-04-24T04:23:55;13.48;;;8.18;;
22646;SDS011;11490;42.726;23.268;2023-04-24T04:26:21;12.10;;;7.68;;
22646;SDS011;11490;42.726;23.268;2023-04-24T04:28:50;12.18;;;8.75;;
22646;SDS011;11490;42.726;23.268;2023-04-24T04:31:16;15.02;;;8.15;;
22646;SDS011;11490;42.726;23.268;2023-04-24T04:33:41;12.80;;;8.82;;
22646;SDS011;11490;42.726;23.268;2023-04-24T04:36:07;13.55;;;7.97;;
22646;SDS011;11490;42.726;23.268;2023-04-24T04:38:33;8.85;;;6.70;;
22646;SDS011;11490;42.726;23.268;2023-04-24T04:40:59;8.73;;;6.85;;
22646;SDS011;11490;42.726;23.268;2023-04-24T04:43:25;8.95;;;7.03;;
22646;SDS011;11490;42.726;23.268;2023-04-24T04:45:51;9.95;;;7.30;;
22646;SDS011;11490;42.726;23.268;2023-04-24T04:48:17;10.15;;;6.93;;
22646;SDS011;11490;42.726;23.268;2023-04-24T04:50:43;11.77;;;6.85;;
22646;SDS011;11490;42.726;23.268;2023-04-24T04:53:09;12.05;;;6.88;;
22646;SDS011;11490;42.726;23.268;2023-04-24T04:55:34;11.27;;;7.03;;
22646;SDS011;11490;42.726;23.268;2023-04-24T04:58:00;8.07;;;6.35;;
22646;SDS011;11490;42.726;23.268;2023-04-24T05:00:26;9.30;;;6.60;;
22646;SDS011;11490;42.726;23.268;2023-04-24T05:02:52;8.88;;;6.57;;
22646;SDS011;11490;42.726;23.268;2023-04-24T05:05:17;13.48;;;6.30;;
22646;SDS011;11490;42.726;23.268;2023-04-24T05:07:43;8.55;;;5.95;;
22646;SDS011;11490;42.726;23.268;2023-04-24T05:10:09;9.23;;;5.97;;
22646;SDS011;11490;42.726;23.268;2023-04-24T05:12:34;10.82;;;6.43;;
22646;SDS011;11490;42.726;23.268;2023-04-24T05:15:00;7.68;;;5.80;;
22646;SDS011;11490;42.726;23.268;2023-04-24T05:17:25;8.77;;;6.18;;
22646;SDS011;11490;42.726;23.268;2023-04-24T05:19:51;7.63;;;6.25;;
22646;SDS011;11490;42.726;23.268;2023-04-24T05:22:16;12.30;;;6.05;;
22646;SDS011;11490;42.726;23.268;2023-04-24T05:24:43;8.88;;;6.47;;
22646;SDS011;11490;42.726;23.268;2023-04-24T05:27:09;8.32;;;6.20;;
22646;SDS011;11490;42.726;23.268;2023-04-24T05:29:35;7.45;;;5.55;;
22646;SDS011;11490;42.726;23.268;2023-04-24T05:32:00;11.20;;;6.60;;
22646;SDS011;11490;42.726;23.268;2023-04-24T05:34:26;8.85;;;6.38;;
22646;SDS011;11490;42.726;23.268;2023-04-24T05:36:51;8.45;;;6.22;;
22646;SDS011;11490;42.726;23.268;2023-04-24T05:39:17;8.77;;;6.20;;
22646;SDS011;11490;42.726;23.268;2023-04-24T05:41:42;11.18;;;7.85;;
22646;SDS011;11490;42.726;23.268;2023-04-24T05:44:08;19.90;;;11.73;;
22646;SDS011;11490;42.726;23.268;2023-04-24T05:46:34;19.00;;;11.10;;
22646;SDS011;11490;42.726;23.268;2023-04-24T05:49:00;9.95;;;7.20;;
22646;SDS011;11490;42.726;23.268;2023-04-24T05:51:25;11.02;;;7.18;;
22646;SDS011;11490;42.726;23.268;2023-04-24T05:53:51;12.32;;;8.13;;
22646;SDS011;11490;42.726;23.268;2023-04-24T05:56:17;9.57;;;6.18;;
22646;SDS011;11490;42.726;23.268;2023-04-24T05:58:43;10.65;;;6.30;;
22646;SDS011;11490;42.726;23.268;2023-04-24T06:01:09;18.98;;;10.65;;
22646;SDS011;11490;42.726;23.268;2023-04-24T06:03:34;6.50;;;5.00;;
22646;SDS011;11490;42.726;23.268;2023-04-24T06:06:00;7.68;;;4.45;;
22646;SDS011;11490;42.726;23.268;2023-04-24T06:08:25;4.38;;;3.80;;
22646;SDS011;11490;42.726;23.268;2023-04-24T06:10:50;7.03;;;5.07;;
22646;SDS011;11490;42.726;23.268;2023-04-24T06:13:16;8.63;;;4.95;;
22646;SDS011;11490;42.726;23.268;2023-04-24T06:15:41;7.03;;;5.25;;
22646;SDS011;11490;42.726;23.268;2023-04-24T06:18:08;8.63;;;7.05;;
22646;SDS011;11490;42.726;23.268;2023-04-24T06:20:35;10.40;;;6.55;;
22646;SDS011;11490;42.726;23.268;2023-04-24T06:23:00;11.48;;;6.68;;
22646;SDS011;11490;42.726;23.268;2023-04-24T06:25:25;9.07;;;5.88;;
22646;SDS011;11490;42.726;23.268;2023-04-24T06:27:54;10.43;;;6.32;;
22646;SDS011;11490;42.726;23.268;2023-04-24T06:30:20;10.73;;;6.43;;
22646;SDS011;11490;42.726;23.268;2023-04-24T06:32:46;8.25;;;6.07;;
22646;SDS011;11490;42.726;23.268;2023-04-24T06:35:11;7.45;;;5.85;;
22646;SDS011;11490;42.726;23.268;2023-04-24T06:37:38;11.23;;;6.07;;
22646;SDS011;11490;42.726;23.268;2023-04-24T06:40:04;12.43;;;6.00;;
22646;SDS011;11490;42.726;23.268;2023-04-24T06:42:30;7.78;;;5.30;;
22646;SDS011;11490;42.726;23.268;2023-04-24T06:44:56;7.47;;;5.13;;
22646;SDS011;11490;42.726;23.268;2023-04-24T06:47:21;7.95;;;5.55;;
22646;SDS011;11490;42.726;23.268;2023-04-24T06:49:46;8.85;;;6.07;;
22646;SDS011;11490;42.726;23.268;2023-04-24T06:52:12;9.57;;;6.35;;
22646;SDS011;11490;42.726;23.268;2023-04-24T06:54:37;7.85;;;5.00;;
22646;SDS011;11490;42.726;23.268;2023-04-24T06:57:02;8.25;;;4.70;;
22646;SDS011;11490;42.726;23.268;2023-04-24T06:59:28;9.05;;;5.15;;
22646;SDS011;11490;42.726;23.268;2023-04-24T07:01:55;7.47;;;5.55;;
22646;SDS011;11490;42.726;23.268;2023-04-24T07:04:20;12.13;;;5.75;;
22646;SDS011;11490;42.726;23.268;2023-04-24T07:06:46;13.50;;;5.20;;
22646;SDS011;11490;42.726;23.268;2023-04-24T07:09:12;9.25;;;6.07;;
22646;SDS011;11490;42.726;23.268;2023-04-24T07:11:39;6.43;;;5.20;;
22646;SDS011;11490;42.726;23.268;2023-04-24T07:14:07;11.98;;;6.57;;
22646;SDS011;11490;42.726;23.268;2023-04-24T07:16:33;9.63;;;5.15;;
22646;SDS011;11490;42.726;23.268;2023-04-24T07:18:59;10.63;;;6.45;;
22646;SDS011;11490;42.726;23.268;2023-04-24T07:21:25;7.90;;;5.95;;
22646;SDS011;11490;42.726;23.268;2023-04-24T07:23:50;8.77;;;6.43;;
22646;SDS011;11490;42.726;23.268;2023-04-24T07:26:16;14.55;;;6.35;;
22646;SDS011;11490;42.726;23.268;2023-04-24T07:28:41;15.73;;;9.50;;
22646;SDS011;11490;42.726;23.268;2023-04-24T07:31:08;11.02;;;6.97;;
22646;SDS011;11490;42.726;23.268;2023-04-24T07:36:45;20.65;;;11.20;;
22646;SDS011;11490;42.726;23.268;2023-04-24T07:39:18;13.55;;;7.43;;
22646;SDS011;11490;42.726;23.268;2023-04-24T07:41:43;8.65;;;6.30;;
22646;SDS011;11490;42.726;23.268;2023-04-24T07:44:09;7.35;;;5.40;;
22646;SDS011;11490;42.726;23.268;2023-04-24T07:46:37;8.10;;;5.40;;
22646;SDS011;11490;42.726;23.268;2023-04-24T07:49:05;6.88;;;5.00;;
22646;SDS011;11490;42.726;23.268;2023-04-24T07:51:35;10.57;;;5.32;;
22646;SDS011;11490;42.726;23.268;2023-04-24T07:54:03;6.68;;;5.57;;
22646;SDS011;11490;42.726;23.268;2023-04-24T07:56:32;7.47;;;5.28;;
22646;SDS011;11490;42.726;23.268;2023-04-24T07:58:58;9.90;;;5.20;;
22646;SDS011;11490;42.726;23.268;2023-04-24T08:01:24;9.70;;;5.60;;
22646;SDS011;11490;42.726;23.268;2023-04-24T08:04:02;10.40;;;4.55;;
22646;SDS011;11490;42.726;23.268;2023-04-24T08:11:34;9.90;;;4.55;;
22646;SDS011;11490;42.726;23.268;2023-04-24T08:14:31;6.68;;;5.00;;
22646;SDS011;11490;42.726;23.268;2023-04-24T08:17:00;13.60;;;4.25;;
22646;SDS011;11490;42.726;23.268;2023-04-24T08:19:28;6.40;;;5.07;;
22646;SDS011;11490;42.726;23.268;2023-04-24T08:21:57;7.20;;;5.60;;
22646;SDS011;11490;42.726;23.268;2023-04-24T08:24:22;16.98;;;5.05;;
22646;SDS011;11490;42.726;23.268;2023-04-24T08:26:50;5.53;;;4.22;;
22646;SDS011;11490;42.726;23.268;2023-04-24T08:29:16;6.00;;;4.97;;
22646;SDS011;11490;42.726;23.268;2023-04-24T08:31:50;7.45;;;5.13;;
22646;SDS011;11490;42.726;23.268;2023-04-24T08:34:19;7.45;;;4.10;;
22646;SDS011;11490;42.726;23.268;2023-04-24T08:36:47;5.35;;;3.88;;
22646;SDS011;11490;42.726;23.268;2023-04-24T08:42:45;9.73;;;4.15;;
22646;SDS011;11490;42.726;23.268;2023-04-24T08:45:33;6.45;;;4.53;;
22646;SDS011;11490;42.726;23.268;2023-04-24T08:51:18;7.15;;;4.30;;
22646;SDS011;11490;42.726;23.268;2023-04-24T08:53:45;9.05;;;4.80;;
22646;SDS011;11490;42.726;23.268;2023-04-24T08:56:14;5.43;;;4.13;;
22646;SDS011;11490;42.726;23.268;2023-04-24T08:58:59;5.47;;;4.03;;
22646;SDS011;11490;42.726;23.268;2023-04-24T09:01:35;6.40;;;4.28;;
22646;SDS011;11490;42.726;23.268;2023-04-24T09:04:12;11.27;;;4.85;;
22646;SDS011;11490;42.726;23.268;2023-04-24T09:07:58;6.50;;;5.25;;
22646;SDS011;11490;42.726;23.268;2023-04-24T09:10:56;11.73;;;4.85;;
22646;SDS011;11490;42.726;23.268;2023-04-24T09:13:29;7.40;;;5.05;;
22646;SDS011;11490;42.726;23.268;2023-04-24T09:22:09;7.97;;;3.97;;
22646;SDS011;11490;42.726;23.268;2023-04-24T09:24:36;5.38;;;3.80;;
22646;SDS011;11490;42.726;23.268;2023-04-24T09:27:07;5.85;;;3.67;;
22646;SDS011;11490;42.726;23.268;2023-04-24T09:30:29;6.25;;;4.78;;
22646;SDS011;11490;42.726;23.268;2023-04-24T09:35:53;16.05;;;5.03;;
22646;SDS011;11490;42.726;23.268;2023-04-24T09:38:37;8.50;;;5.00;;
22646;SDS011;11490;42.726;23.268;2023-04-24T09:41:04;8.02;;;4.10;;
22646;SDS011;11490;42.726;23.268;2023-04-24T09:43:33;7.72;;;4.53;;
22646;SDS011;11490;42.726;23.268;2023-04-24T09:46:35;7.35;;;4.93;;
22646;SDS011;11490;42.726;23.268;2023-04-24T09:49:07;5.35;;;4.43;;
22646;SDS011;11490;42.726;23.268;2023-04-24T09:51:42;10.20;;;4.07;;
22646;SDS011;11490;42.726;23.268;2023-04-24T09:54:14;7.80;;;5.80;;
22646;SDS011;11490;42.726;23.268;2023-04-24T09:56:54;8.68;;;4.53;;
22646;SDS011;11490;42.726;23.268;2023-04-24T09:59:45;10.23;;;5.05;;
22646;SDS011;11490;42.726;23.268;2023-04-24T10:02:30;7.07;;;4.53;;
22646;SDS011;11490;42.726;23.268;2023-04-24T10:05:08;7.93;;;4.00;;
22646;SDS011;11490;42.726;23.268;2023-04-24T10:07:40;6.97;;;4.53;;
22646;SDS011;11490;42.726;23.268;2023-04-24T10:10:15;5.53;;;3.22;;
22646;SDS011;11490;42.726;23.268;2023-04-24T10:12:41;6.70;;;4.30;;
22646;SDS011;11490;42.726;23.268;2023-04-24T10:15:10;8.20;;;5.15;;
22646;SDS011;11490;42.726;23.268;2023-04-24T10:17:37;6.35;;;4.20;;
22646;SDS011;11490;42.726;23.268;2023-04-24T10:20:04;6.20;;;4.20;;
22646;SDS011;11490;42.726;23.268;2023-04-24T10:22:33;6.13;;;4.20;;
22646;SDS011;11490;42.726;23.268;2023-04-24T10:24:59;8.50;;;4.10;;
22646;SDS011;11490;42.726;23.268;2023-04-24T10:27:25;5.18;;;3.80;;
22646;SDS011;11490;42.726;23.268;2023-04-24T10:29:52;4.50;;;3.17;;
22646;SDS011;11490;42.726;23.268;2023-04-24T10:32:21;9.43;;;4.43;;
22646;SDS011;11490;42.726;23.268;2023-04-24T10:34:46;11.60;;;4.80;;
22646;SDS011;11490;42.726;23.268;2023-04-24T10:37:12;6.43;;;3.80;;
22646;SDS011;11490;42.726;23.268;2023-04-24T10:39:39;7.80;;;4.82;;
22646;SDS011;11490;42.726;23.268;2023-04-24T10:42:15;12.85;;;4.70;;
22646;SDS011;11490;42.726;23.268;2023-04-24T10:44:40;7.00;;;3.70;;
22646;SDS011;11490;42.726;23.268;2023-04-24T10:47:07;4.90;;;3.85;;
22646;SDS011;11490;42.726;23.268;2023-04-24T10:49:39;5.80;;;4.50;;
22646;SDS011;11490;42.726;23.268;2023-04-24T10:52:05;6.45;;;4.28;;
22646;SDS011;11490;42.726;23.268;2023-04-24T10:54:35;10.02;;;4.53;;
22646;SDS011;11490;42.726;23.268;2023-04-24T11:00:10;5.43;;;3.67;;
22646;SDS011;11490;42.726;23.268;2023-04-24T11:02:39;4.95;;;3.45;;
22646;SDS011;11490;42.726;23.268;2023-04-24T11:05:08;5.28;;;3.58;;
22646;SDS011;11490;42.726;23.268;2023-04-24T11:10:47;8.68;;;4.30;;
22646;SDS011;11490;42.726;23.268;2023-04-24T11:13:24;4.25;;;3.20;;
22646;SDS011;11490;42.726;23.268;2023-04-24T11:19:00;5.95;;;3.22;;
22646;SDS011;11490;42.726;23.268;2023-04-24T11:29:46;8.10;;;4.25;;
22646;SDS011;11490;42.726;23.268;2023-04-24T11:35:08;4.38;;;3.60;;
22646;SDS011;11490;42.726;23.268;2023-04-24T11:37:35;4.43;;;3.75;;
22646;SDS011;11490;42.726;23.268;2023-04-24T11:40:02;3.88;;;3.33;;
22646;SDS011;11490;42.726;23.268;2023-04-24T11:42:33;4.95;;;3.70;;
22646;SDS011;11490;42.726;23.268;2023-04-24T11:44:59;13.45;;;7.68;;
22646;SDS011;11490;42.726;23.268;2023-04-24T11:47:30;4.45;;;3.45;;
22646;SDS011;11490;42.726;23.268;2023-04-24T11:49:58;6.82;;;3.70;;
22646;SDS011;11490;42.726;23.268;2023-04-24T11:52:25;5.75;;;3.67;;
22646;SDS011;11490;42.726;23.268;2023-04-24T11:54:54;7.25;;;3.78;;
22646;SDS011;11490;42.726;23.268;2023-04-24T11:57:24;6.43;;;3.50;;
22646;SDS011;11490;42.726;23.268;2023-04-24T11:59:53;5.43;;;3.72;;
22646;SDS011;11490;42.726;23.268;2023-04-24T12:02:20;6.68;;;4.32;;
22646;SDS011;11490;42.726;23.268;2023-04-24T12:04:49;5.00;;;3.55;;
22646;SDS011;11490;42.726;23.268;2023-04-24T12:07:15;5.53;;;3.47;;
22646;SDS011;11490;42.726;23.268;2023-04-24T12:09:47;6.07;;;3.60;;
22646;SDS011;11490;42.726;23.268;2023-04-24T12:12:15;5.65;;;3.47;;
22646;SDS011;11490;42.726;23.268;2023-04-24T12:14:49;3.83;;;2.92;;
22646;SDS011;11490;42.726;23.268;2023-04-24T12:17:17;3.65;;;3.20;;
22646;SDS011;11490;42.726;23.268;2023-04-24T12:19:46;7.03;;;3.10;;
22646;SDS011;11490;42.726;23.268;2023-04-24T12:22:13;4.40;;;3.13;;
22646;SDS011;11490;42.726;23.268;2023-04-24T12:24:58;4.70;;;3.60;;
22646;SDS011;11490;42.726;23.268;2023-04-24T12:27:25;4.93;;;3.97;;
22646;SDS011;11490;42.726;23.268;2023-04-24T12:30:02;7.68;;;3.85;;
22646;SDS011;11490;42.726;23.268;2023-04-24T12:32:29;4.63;;;3.20;;
22646;SDS011;11490;42.726;23.268;2023-04-24T12:34:55;6.90;;;3.95;;
22646;SDS011;11490;42.726;23.268;2023-04-24T12:37:22;6.90;;;3.70;;
22646;SDS011;11490;42.726;23.268;2023-04-24T12:40:08;5.47;;;4.05;;
22646;SDS011;11490;42.726;23.268;2023-04-24T12:42:35;5.20;;;3.33;;
22646;SDS011;11490;42.726;23.268;2023-04-24T12:45:06;6.50;;;3.88;;
22646;SDS011;11490;42.726;23.268;2023-04-24T12:47:33;7.28;;;3.38;;
22646;SDS011;11490;42.726;23.268;2023-04-24T12:49:59;6.03;;;3.78;;
22646;SDS011;11490;42.726;23.268;2023-04-24T12:52:26;4.75;;;3.67;;
22646;SDS011;11490;42.726;23.268;2023-04-24T12:54:54;5.43;;;3.65;;
22646;SDS011;11490;42.726;23.268;2023-04-24T12:57:21;5.30;;;4.00;;
22646;SDS011;11490;42.726;23.268;2023-04-24T12:59:47;5.03;;;3.70;;
22646;SDS011;11490;42.726;23.268;2023-04-24T13:02:13;4.32;;;3.42;;
22646;SDS011;11490;42.726;23.268;2023-04-24T13:04:38;5.60;;;4.13;;
22646;SDS011;11490;42.726;23.268;2023-04-24T13:07:04;5.00;;;3.47;;
22646;SDS011;11490;42.726;23.268;2023-04-24T13:09:30;5.53;;;3.53;;
22646;SDS011;11490;42.726;23.268;2023-04-24T13:11:56;5.13;;;2.95;;
22646;SDS011;11490;42.726;23.268;2023-04-24T13:14:22;4.93;;;2.72;;
22646;SDS011;11490;42.726;23.268;2023-04-24T13:16:48;4.50;;;3.67;;
22646;SDS011;11490;42.726;23.268;2023-04-24T13:19:13;4.97;;;4.10;;
22646;SDS011;11490;42.726;23.268;2023-04-24T13:21:38;3.55;;;2.90;;
22646;SDS011;11490;42.726;23.268;2023-04-24T13:24:04;3.85;;;2.80;;
22646;SDS011;11490;42.726;23.268;2023-04-24T13:26:32;4.50;;;3.13;;
22646;SDS011;11490;42.726;23.268;2023-04-24T13:28:58;3.83;;;2.95;;
22646;SDS011;11490;42.726;23.268;2023-04-24T13:31:23;3.35;;;2.97;;
22646;SDS011;11490;42.726;23.268;2023-04-24T13:33:49;3.80;;;2.95;;
22646;SDS011;11490;42.726;23.268;2023-04-24T13:36:14;3.90;;;3.10;;
22646;SDS011;11490;42.726;23.268;2023-04-24T13:38:40;5.88;;;2.75;;
22646;SDS011;11490;42.726;23.268;2023-04-24T13:41:06;4.07;;;3.00;;
22646;SDS011;11490;42.726;23.268;2023-04-24T13:43:31;4.45;;;3.08;;
22646;SDS011;11490;42.726;23.268;2023-04-24T13:45:58;5.47;;;3.30;;
22646;SDS011;11490;42.726;23.268;2023-04-24T13:48:26;5.20;;;3.45;;
22646;SDS011;11490;42.726;23.268;2023-04-24T13:50:52;7.32;;;3.30;;
22646;SDS011;11490;42.726;23.268;2023-04-24T13:53:17;6.10;;;2.70;;
22646;SDS011;11490;42.726;23.268;2023-04-24T13:55:43;4.38;;;2.38;;
22646;SDS011;11490;42.726;23.268;2023-04-24T13:58:08;10.60;;;3.05;;
22646;SDS011;11490;42.726;23.268;2023-04-24T14:00:33;3.42;;;2.63;;
22646;SDS011;11490;42.726;23.268;2023-04-24T14:02:59;6.88;;;2.85;;
22646;SDS011;11490;42.726;23.268;2023-04-24T14:05:24;3.80;;;2.63;;
22646;SDS011;11490;42.726;23.268;2023-04-24T14:07:50;4.28;;;2.90;;
22646;SDS011;11490;42.726;23.268;2023-04-24T14:10:16;3.53;;;2.85;;
22646;SDS011;11490;42.726;23.268;2023-04-24T14:12:41;5.03;;;3.08;;
22646;SDS011;11490;42.726;23.268;2023-04-24T14:15:07;4.45;;;2.80;;
22646;SDS011;11490;42.726;23.268;2023-04-24T14:17:33;3.65;;;2.70;;
22646;SDS011;11490;42.726;23.268;2023-04-24T14:19:59;4.43;;;3.53;;
22646;SDS011;11490;42.726;23.268;2023-04-24T14:22:25;4.07;;;3.00;;
22646;SDS011;11490;42.726;23.268;2023-04-24T14:24:51;5.03;;;3.95;;
22646;SDS011;11490;42.726;23.268;2023-04-24T14:27:16;6.50;;;3.13;;
22646;SDS011;11490;42.726;23.268;2023-04-24T14:29:42;6.55;;;3.20;;
22646;SDS011;11490;42.726;23.268;2023-04-24T14:32:07;3.55;;;2.50;;
22646;SDS011;11490;42.726;23.268;2023-04-24T14:34:34;4.25;;;2.95;;
22646;SDS011;11490;42.726;23.268;2023-04-24T14:36:59;5.90;;;3.80;;
22646;SDS011;11490;42.726;23.268;2023-04-24T14:39:25;6.53;;;2.95;;
22646;SDS011;11490;42.726;23.268;2023-04-24T14:41:51;3.75;;;2.95;;
22646;SDS011;11490;42.726;23.268;2023-04-24T14:44:16;4.43;;;3.22;;
22646;SDS011;11490;42.726;23.268;2023-04-24T14:46:42;8.55;;;3.47;;
22646;SDS011;11490;42.726;23.268;2023-04-24T14:49:08;8.07;;;3.33;;
22646;SDS011;11490;42.726;23.268;2023-04-24T14:51:35;3.55;;;2.80;;
22646;SDS011;11490;42.726;23.268;2023-04-24T14:54:00;5.50;;;3.85;;
22646;SDS011;11490;42.726;23.268;2023-04-24T14:56:26;4.70;;;3.40;;
22646;SDS011;11490;42.726;23.268;2023-04-24T14:58:51;4.20;;;3.33;;
22646;SDS011;11490;42.726;23.268;2023-04-24T15:01:18;4.50;;;3.55;;
22646;SDS011;11490;42.726;23.268;2023-04-24T15:03:43;4.45;;;2.90;;
22646;SDS011;11490;42.726;23.268;2023-04-24T15:06:09;3.42;;;2.83;;
22646;SDS011;11490;42.726;23.268;2023-04-24T15:08:34;6.03;;;4.28;;
22646;SDS011;11490;42.726;23.268;2023-04-24T15:10:59;6.55;;;3.90;;
22646;SDS011;11490;42.726;23.268;2023-04-24T15:13:26;6.13;;;2.85;;
22646;SDS011;11490;42.726;23.268;2023-04-24T15:15:51;9.77;;;4.25;;
22646;SDS011;11490;42.726;23.268;2023-04-24T15:18:16;7.22;;;4.60;;